createdAt,value
2022-12-20T00:01:26.926Z,8.80
2022-12-20T00:03:56.153Z,8.90
2022-12-20T00:06:23.573Z,8.90
2022-12-20T00:09:01.261Z,8.80
2022-12-20T00:19:11.280Z,8.90
2022-12-20T00:21:38.364Z,8.90
2022-12-20T00:24:09.122Z,8.80
2022-12-20T00:26:36.052Z,8.90
2022-12-20T00:29:02.854Z,8.80
2022-12-20T00:31:31.720Z,8.90
2022-12-20T00:42:06.969Z,8.90
2022-12-20T00:44:33.690Z,8.90
2022-12-20T00:47:00.458Z,8.90
2022-12-20T00:49:27.139Z,8.90
2022-12-20T00:51:53.707Z,8.90
2022-12-20T00:54:20.345Z,9.00
2022-12-20T01:24:54.422Z,9.10
2022-12-20T01:27:21.290Z,9.10
2022-12-20T01:29:48.061Z,9.10
2022-12-20T01:32:14.954Z,9.20
2022-12-20T01:34:41.723Z,9.20
2022-12-20T01:37:08.405Z,9.20
2022-12-20T01:39:35.393Z,9.20
2022-12-20T01:42:02.048Z,9.20
2022-12-20T01:59:55.232Z,9.40
2022-12-20T02:02:22.041Z,9.40
2022-12-20T02:04:48.729Z,9.40
2022-12-20T02:07:20.579Z,9.40
2022-12-20T02:09:48.195Z,9.40
2022-12-20T02:15:57.328Z,9.50
2022-12-20T02:27:31.296Z,9.60
2022-12-20T02:29:58.739Z,9.60
2022-12-20T02:32:46.177Z,9.60
2022-12-20T02:35:18.244Z,9.60
2022-12-20T02:37:56.879Z,9.60
2022-12-20T02:40:29.621Z,9.60
2022-12-20T02:43:00.810Z,9.60
2022-12-20T02:53:09.977Z,9.60
2022-12-20T02:56:00.247Z,9.60
2022-12-20T02:58:36.233Z,9.60
2022-12-20T03:12:26.525Z,9.60
2022-12-20T03:14:53.188Z,9.60
2022-12-20T03:17:19.956Z,9.50
2022-12-20T03:32:47.109Z,9.60
2022-12-20T03:35:14.110Z,9.50
2022-12-20T03:37:41.405Z,9.60
2022-12-20T03:40:08.957Z,9.50
2022-12-20T03:42:36.572Z,9.60
2022-12-20T03:45:03.657Z,9.60
2022-12-20T03:47:30.371Z,9.60
2022-12-20T03:53:47.783Z,9.70
2022-12-20T03:56:14.411Z,9.70
2022-12-20T03:58:41.101Z,9.70
2022-12-20T04:01:22.242Z,9.70
2022-12-20T04:19:03.168Z,9.80
2022-12-20T04:21:33.287Z,9.80
2022-12-20T04:24:02.211Z,9.80
2022-12-20T04:26:29.558Z,9.80
2022-12-20T06:39:18.989Z,10.30
2022-12-20T06:41:45.719Z,10.30
2022-12-20T06:44:12.486Z,10.30
2022-12-20T06:46:39.303Z,10.30
2022-12-20T06:49:06.131Z,10.40
2022-12-20T07:26:19.241Z,10.40
2022-12-20T07:28:46.098Z,10.40
2022-12-20T07:31:13.077Z,10.40
2022-12-20T07:33:40.049Z,10.40
2022-12-20T07:36:10.887Z,10.40
2022-12-20T07:38:38.115Z,10.50
2022-12-20T07:56:21.048Z,10.50
2022-12-20T07:58:50.556Z,10.50
2022-12-20T08:01:17.850Z,10.50
2022-12-20T08:03:49.822Z,10.60
2022-12-20T13:35:32.192Z,11.60
2022-12-20T13:38:37.189Z,11.60
2022-12-20T13:41:29.551Z,11.60
2022-12-20T13:44:41.022Z,11.70
2022-12-20T14:10:17.082Z,11.70
2022-12-20T14:12:46.338Z,11.70
2022-12-20T14:15:27.036Z,11.70
2022-12-20T14:17:54.223Z,11.70
2022-12-20T14:20:25.217Z,11.70
2022-12-20T14:23:04.210Z,11.70
2022-12-20T14:25:38.913Z,11.80
2022-12-20T14:28:20.007Z,11.80
2022-12-20T14:30:50.125Z,11.80
2022-12-20T14:33:30.495Z,11.80
2022-12-20T14:35:57.808Z,11.80
2022-12-20T14:46:20.529Z,11.80
2022-12-20T14:48:47.773Z,11.80
2022-12-20T14:51:21.633Z,11.80
2022-12-20T14:53:50.796Z,11.80
2022-12-20T15:00:33.541Z,11.80
2022-12-20T17:32:24.013Z,11.40
2022-12-20T17:34:51.328Z,11.40
2022-12-20T17:37:18.315Z,11.40
2022-12-20T17:39:45.135Z,11.40
2022-12-20T18:21:51.619Z,11.30
2022-12-20T18:24:19.994Z,11.40
2022-12-20T18:26:47.336Z,11.30
2022-12-20T18:29:14.506Z,11.40
2022-12-20T18:31:41.227Z,11.40
2022-12-20T18:34:07.909Z,11.40
2022-12-20T18:47:57.739Z,11.40
2022-12-20T18:50:24.388Z,11.40
2022-12-20T18:52:51.051Z,11.40
2022-12-20T19:06:51.232Z,11.40
2022-12-20T19:09:17.938Z,11.40
2022-12-20T19:11:44.560Z,11.40
2022-12-20T19:14:12.400Z,11.40
2022-12-20T19:54:01.728Z,11.20
2022-12-20T19:56:31.670Z,11.20
2022-12-20T19:58:58.418Z,11.20
2022-12-20T20:01:27.586Z,11.20
2022-12-20T20:15:28.181Z,11.20
2022-12-20T20:17:55.245Z,11.20
2022-12-20T20:20:22.462Z,11.30
2022-12-20T20:22:49.090Z,11.20
2022-12-20T20:48:04.008Z,11.20
2022-12-20T20:50:32.543Z,11.20
2022-12-20T20:52:59.847Z,11.20
2022-12-20T20:55:26.769Z,11.20
2022-12-20T20:57:53.771Z,11.20
2022-12-20T21:27:17.605Z,11.10
2022-12-20T21:29:44.271Z,11.10
2022-12-20T21:32:11.240Z,11.10
2022-12-20T21:34:38.339Z,11.10
2022-12-20T21:49:36.643Z,11.10
2022-12-20T21:52:03.370Z,11.10
2022-12-20T21:54:30.109Z,11.10
2022-12-20T22:12:11.490Z,11.10
2022-12-20T22:14:38.172Z,11.00
2022-12-20T22:17:04.869Z,11.00
2022-12-20T22:19:31.557Z,11.00
2022-12-20T22:21:58.753Z,11.10
2022-12-20T22:39:49.677Z,10.90
2022-12-20T22:42:16.344Z,10.90
2022-12-20T22:44:43.014Z,10.90
2022-12-20T22:47:09.729Z,10.90
2022-12-20T23:44:59.494Z,10.60
2022-12-20T23:47:26.136Z,10.60
2022-12-20T23:49:52.873Z,10.60
2022-12-20T23:52:19.541Z,10.60
2022-12-20T23:54:46.145Z,10.60
2022-12-20T23:57:13.855Z,10.60
